sensor_id;sensor_type;location;lat;lon;timestamp;pressure;altitude;pressure_sealevel;temperature;humidity
70437;BME280;57877;39.750;-104.894;2023-06-22T00:00:05;83571.72;;;29.88;20.71
70437;BME280;57877;39.750;-104.894;2023-06-22T00:02:29;83574.40;;;29.92;20.61
70437;BME280;57877;39.750;-104.894;2023-06-22T00:04:54;83574.43;;;29.65;20.87
70437;BME280;57877;39.750;-104.894;2023-06-22T00:07:19;83564.90;;;30.31;20.37
70437;BME280;57877;39.750;-104.894;2023-06-22T00:09:44;83559.62;;;29.67;20.88
70437;BME280;57877;39.750;-104.894;2023-06-22T00:12:09;83546.70;;;29.66;21.10
70437;BME280;57877;39.750;-104.894;2023-06-22T00:14:34;83538.90;;;30.23;21.06
70437;BME280;57877;39.750;-104.894;2023-06-22T00:16:59;83530.48;;;30.30;20.41
70437;BME280;57877;39.750;-104.894;2023-06-22T00:19:25;83526.76;;;29.88;21.08
70437;BME280;57877;39.750;-104.894;2023-06-22T00:21:50;83528.83;;;29.13;21.80
70437;BME280;57877;39.750;-104.894;2023-06-22T00:24:15;83529.71;;;29.65;21.62
70437;BME280;57877;39.750;-104.894;2023-06-22T00:26:40;83536.35;;;29.41;22.25
70437;BME280;57877;39.750;-104.894;2023-06-22T00:29:05;83541.17;;;30.08;22.08
70437;BME280;57877;39.750;-104.894;2023-06-22T00:31:30;83547.71;;;30.12;21.27
70437;BME280;57877;39.750;-104.894;2023-06-22T00:33:55;83556.25;;;30.28;20.87
70437;BME280;57877;39.750;-104.894;2023-06-22T00:36:20;83565.50;;;30.25;20.90
70437;BME280;57877;39.750;-104.894;2023-06-22T00:38:45;83569.05;;;29.79;20.56
70437;BME280;57877;39.750;-104.894;2023-06-22T00:41:10;83563.09;;;30.51;19.76
70437;BME280;57877;39.750;-104.894;2023-06-22T00:43:35;83556.71;;;29.94;20.37
70437;BME280;57877;39.750;-104.894;2023-06-22T00:46:00;83557.49;;;30.15;20.40
70437;BME280;57877;39.750;-104.894;2023-06-22T00:48:25;83559.38;;;30.61;20.45
70437;BME280;57877;39.750;-104.894;2023-06-22T00:50:51;83570.13;;;30.07;20.35
70437;BME280;57877;39.750;-104.894;2023-06-22T00:53:15;83573.13;;;30.19;20.42
70437;BME280;57877;39.750;-104.894;2023-06-22T00:55:43;83574.96;;;29.67;20.70
70437;BME280;57877;39.750;-104.894;2023-06-22T00:58:06;83575.17;;;29.76;20.90
70437;BME280;57877;39.750;-104.894;2023-06-22T01:00:31;83570.16;;;29.81;20.64
70437;BME280;57877;39.750;-104.894;2023-06-22T01:02:56;83561.95;;;29.76;20.66
70437;BME280;57877;39.750;-104.894;2023-06-22T01:05:21;83556.37;;;29.76;20.92
70437;BME280;57877;39.750;-104.894;2023-06-22T01:07:56;83547.38;;;29.54;21.22
70437;BME280;57877;39.750;-104.894;2023-06-22T01:10:16;83541.08;;;29.68;21.16
70437;BME280;57877;39.750;-104.894;2023-06-22T01:12:40;83537.47;;;29.69;21.09
70437;BME280;57877;39.750;-104.894;2023-06-22T01:15:05;83536.91;;;29.79;21.35
70437;BME280;57877;39.750;-104.894;2023-06-22T01:17:27;83544.42;;;29.49;21.24
70437;BME280;57877;39.750;-104.894;2023-06-22T01:19:54;83552.43;;;30.00;21.84
70437;BME280;57877;39.750;-104.894;2023-06-22T01:22:17;83558.28;;;29.57;21.57
70437;BME280;57877;39.750;-104.894;2023-06-22T01:24:51;83584.70;;;29.47;21.95
70437;BME280;57877;39.750;-104.894;2023-06-22T01:27:17;83623.33;;;26.27;26.74
70437;BME280;57877;39.750;-104.894;2023-06-22T01:29:33;83632.83;;;23.53;31.26
70437;BME280;57877;39.750;-104.894;2023-06-22T01:31:57;83638.59;;;23.19;32.98
70437;BME280;57877;39.750;-104.894;2023-06-22T01:34:22;83648.71;;;22.23;34.07
70437;BME280;57877;39.750;-104.894;2023-06-22T01:36:47;83666.04;;;22.93;33.24
70437;BME280;57877;39.750;-104.894;2023-06-22T01:39:12;83670.70;;;22.00;34.36
70437;BME280;57877;39.750;-104.894;2023-06-22T01:41:38;83677.55;;;22.21;34.52
70437;BME280;57877;39.750;-104.894;2023-06-22T01:44:03;83692.03;;;22.37;34.15
70437;BME280;57877;39.750;-104.894;2023-06-22T01:46:27;83702.69;;;21.53;35.48
70437;BME280;57877;39.750;-104.894;2023-06-22T01:48:52;83697.98;;;22.31;35.15
70437;BME280;57877;39.750;-104.894;2023-06-22T01:51:17;83701.23;;;22.29;35.27
70437;BME280;57877;39.750;-104.894;2023-06-22T01:53:42;83703.75;;;21.44;36.60
70437;BME280;57877;39.750;-104.894;2023-06-22T01:56:07;83699.21;;;22.02;35.92
70437;BME280;57877;39.750;-104.894;2023-06-22T01:58:32;83703.24;;;22.02;36.40
70437;BME280;57877;39.750;-104.894;2023-06-22T02:01:00;83706.45;;;21.88;36.54
70437;BME280;57877;39.750;-104.894;2023-06-22T02:03:26;83717.71;;;21.80;37.29
70437;BME280;57877;39.750;-104.894;2023-06-22T02:05:50;83734.33;;;21.43;37.61
70437;BME280;57877;39.750;-104.894;2023-06-22T02:08:15;83745.29;;;21.18;37.89
70437;BME280;57877;39.750;-104.894;2023-06-22T02:10:38;83740.34;;;20.26;39.46
70437;BME280;57877;39.750;-104.894;2023-06-22T02:13:05;83732.56;;;20.96;38.25
70437;BME280;57877;39.750;-104.894;2023-06-22T02:15:27;83735.52;;;20.31;39.10
70437;BME280;57877;39.750;-104.894;2023-06-22T02:17:53;83733.67;;;20.57;38.62
70437;BME280;57877;39.750;-104.894;2023-06-22T02:20:19;83721.65;;;20.91;37.92
70437;BME280;57877;39.750;-104.894;2023-06-22T02:22:44;83713.14;;;20.43;37.40
70437;BME280;57877;39.750;-104.894;2023-06-22T02:25:09;83702.60;;;20.88;37.09
70437;BME280;57877;39.750;-104.894;2023-06-22T02:27:34;83685.54;;;20.56;37.28
70437;BME280;57877;39.750;-104.894;2023-06-22T02:30:01;83703.53;;;20.45;37.38
70437;BME280;57877;39.750;-104.894;2023-06-22T02:32:25;83721.66;;;19.93;37.91
70437;BME280;57877;39.750;-104.894;2023-06-22T02:34:52;83744.19;;;20.41;40.03
70437;BME280;57877;39.750;-104.894;2023-06-22T02:37:18;83752.55;;;20.34;43.20
70437;BME280;57877;39.750;-104.894;2023-06-22T02:39:43;83750.53;;;20.20;43.20
70437;BME280;57877;39.750;-104.894;2023-06-22T02:42:08;83743.49;;;19.66;39.01
70437;BME280;57877;39.750;-104.894;2023-06-22T02:44:33;83729.51;;;19.74;38.32
70437;BME280;57877;39.750;-104.894;2023-06-22T02:46:57;83725.93;;;19.62;38.76
70437;BME280;57877;39.750;-104.894;2023-06-22T02:49:23;83761.65;;;20.06;42.59
70437;BME280;57877;39.750;-104.894;2023-06-22T02:51:48;83813.41;;;20.73;39.27
70437;BME280;57877;39.750;-104.894;2023-06-22T02:54:12;83848.13;;;21.15;40.90
70437;BME280;57877;39.750;-104.894;2023-06-22T02:56:37;83865.06;;;21.30;41.95
70437;BME280;57877;39.750;-104.894;2023-06-22T02:59:02;83874.48;;;20.38;41.52
70437;BME280;57877;39.750;-104.894;2023-06-22T03:01:28;83860.99;;;19.19;43.86
70437;BME280;57877;39.750;-104.894;2023-06-22T03:03:54;83845.86;;;16.23;50.41
70437;BME280;57877;39.750;-104.894;2023-06-22T03:06:20;83867.84;;;15.67;54.90
70437;BME280;57877;39.750;-104.894;2023-06-22T03:08:45;83846.76;;;15.57;55.85
70437;BME280;57877;39.750;-104.894;2023-06-22T03:11:10;83811.49;;;14.86;61.31
70437;BME280;57877;39.750;-104.894;2023-06-22T03:13:36;83799.97;;;15.26;61.84
70437;BME280;57877;39.750;-104.894;2023-06-22T03:16:02;83800.33;;;15.47;61.65
70437;BME280;57877;39.750;-104.894;2023-06-22T03:18:27;83769.66;;;15.28;62.01
70437;BME280;57877;39.750;-104.894;2023-06-22T03:20:52;83762.99;;;14.85;62.90
70437;BME280;57877;39.750;-104.894;2023-06-22T03:23:19;83765.86;;;15.28;62.22
70437;BME280;57877;39.750;-104.894;2023-06-22T03:25:44;83788.37;;;15.99;61.50
70437;BME280;57877;39.750;-104.894;2023-06-22T03:28:11;83816.26;;;16.57;60.15
70437;BME280;57877;39.750;-104.894;2023-06-22T03:30:36;83836.22;;;16.11;60.74
70437;BME280;57877;39.750;-104.894;2023-06-22T03:33:00;83854.12;;;15.68;63.10
70437;BME280;57877;39.750;-104.894;2023-06-22T03:35:26;83867.45;;;16.28;61.40
70437;BME280;57877;39.750;-104.894;2023-06-22T03:37:51;83914.31;;;15.83;60.98
70437;BME280;57877;39.750;-104.894;2023-06-22T03:40:16;83921.01;;;15.17;61.38
70437;BME280;57877;39.750;-104.894;2023-06-22T03:42:41;83886.49;;;15.56;60.15
70437;BME280;57877;39.750;-104.894;2023-06-22T03:45:08;83867.26;;;15.52;61.16
70437;BME280;57877;39.750;-104.894;2023-06-22T03:47:33;83886.94;;;15.83;58.05
70437;BME280;57877;39.750;-104.894;2023-06-22T03:49:58;83933.60;;;14.62;57.85
70437;BME280;57877;39.750;-104.894;2023-06-22T03:52:23;83977.17;;;14.52;59.55
70437;BME280;57877;39.750;-104.894;2023-06-22T03:54:48;83967.12;;;14.61;55.95
70437;BME280;57877;39.750;-104.894;2023-06-22T03:57:13;83938.28;;;14.15;57.41
70437;BME280;57877;39.750;-104.894;2023-06-22T03:59:38;83965.07;;;14.03;58.23
70437;BME280;57877;39.750;-104.894;2023-06-22T04:02:03;83987.68;;;14.34;58.50
70437;BME280;57877;39.750;-104.894;2023-06-22T04:04:28;83979.22;;;14.26;56.62
70437;BME280;57877;39.750;-104.894;2023-06-22T04:06:53;83942.18;;;13.45;58.16
70437;BME280;57877;39.750;-104.894;2023-06-22T04:09:18;83936.06;;;14.02;58.04
70437;BME280;57877;39.750;-104.894;2023-06-22T04:11:43;83928.67;;;14.16;58.07
70437;BME280;57877;39.750;-104.894;2023-06-22T04:14:08;83927.54;;;14.28;56.94
70437;BME280;57877;39.750;-104.894;2023-06-22T04:16:34;83939.73;;;14.56;58.35
70437;BME280;57877;39.750;-104.894;2023-06-22T04:18:59;83946.31;;;14.72;57.38
70437;BME280;57877;39.750;-104.894;2023-06-22T04:21:24;83976.31;;;15.07;57.35
70437;BME280;57877;39.750;-104.894;2023-06-22T04:23:49;84010.40;;;15.24;57.14
70437;BME280;57877;39.750;-104.894;2023-06-22T04:26:14;84011.99;;;14.66;56.84
70437;BME280;57877;39.750;-104.894;2023-06-22T04:28:40;83989.45;;;15.37;57.33
70437;BME280;57877;39.750;-104.894;2023-06-22T04:31:06;83971.81;;;15.20;56.44
70437;BME280;57877;39.750;-104.894;2023-06-22T04:33:32;83974.32;;;15.45;56.33
70437;BME280;57877;39.750;-104.894;2023-06-22T04:35:58;83975.08;;;15.72;55.96
70437;BME280;57877;39.750;-104.894;2023-06-22T04:38:24;83970.61;;;15.57;55.76
70437;BME280;57877;39.750;-104.894;2023-06-22T04:40:50;83965.85;;;15.62;56.27
70437;BME280;57877;39.750;-104.894;2023-06-22T04:43:16;83972.62;;;15.44;57.28
70437;BME280;57877;39.750;-104.894;2023-06-22T04:45:42;83971.08;;;15.52;55.97
70437;BME280;57877;39.750;-104.894;2023-06-22T04:48:08;83962.45;;;15.39;56.20
70437;BME280;57877;39.750;-104.894;2023-06-22T04:50:34;83948.58;;;15.64;56.00
70437;BME280;57877;39.750;-104.894;2023-06-22T04:53:00;83964.78;;;15.75;56.36
70437;BME280;57877;39.750;-104.894;2023-06-22T04:55:26;83982.96;;;15.33;56.47
70437;BME280;57877;39.750;-104.894;2023-06-22T04:57:52;83993.44;;;15.11;56.52
70437;BME280;57877;39.750;-104.894;2023-06-22T05:00:19;83998.45;;;14.68;57.01
70437;BME280;57877;39.750;-104.894;2023-06-22T05:02:44;84016.22;;;14.66;56.76
70437;BME280;57877;39.750;-104.894;2023-06-22T05:05:09;84029.35;;;15.02;56.46
70437;BME280;57877;39.750;-104.894;2023-06-22T05:07:35;84044.62;;;15.01;56.58
70437;BME280;57877;39.750;-104.894;2023-06-22T05:10:00;84045.49;;;15.16;56.28
70437;BME280;57877;39.750;-104.894;2023-06-22T05:12:27;84015.78;;;14.23;57.81
70437;BME280;57877;39.750;-104.894;2023-06-22T05:14:51;83972.75;;;14.24;58.22
70437;BME280;57877;39.750;-104.894;2023-06-22T05:17:18;83956.15;;;14.63;58.47
70437;BME280;57877;39.750;-104.894;2023-06-22T05:19:44;83943.25;;;13.59;60.55
70437;BME280;57877;39.750;-104.894;2023-06-22T05:22:10;83928.07;;;13.41;61.65
70437;BME280;57877;39.750;-104.894;2023-06-22T05:24:36;83948.30;;;13.35;62.18
70437;BME280;57877;39.750;-104.894;2023-06-22T05:27:01;83967.37;;;13.10;62.05
70437;BME280;57877;39.750;-104.894;2023-06-22T05:29:28;83976.49;;;13.57;61.75
70437;BME280;57877;39.750;-104.894;2023-06-22T05:31:54;83984.25;;;14.30;59.53
70437;BME280;57877;39.750;-104.894;2023-06-22T05:34:20;83983.83;;;14.43;58.94
70437;BME280;57877;39.750;-104.894;2023-06-22T05:36:45;83970.01;;;14.61;58.15
70437;BME280;57877;39.750;-104.894;2023-06-22T05:39:13;83964.62;;;14.73;58.68
70437;BME280;57877;39.750;-104.894;2023-06-22T05:41:37;83970.26;;;14.37;59.13
70437;BME280;57877;39.750;-104.894;2023-06-22T05:44:03;83978.63;;;14.36;59.29
70437;BME280;57877;39.750;-104.894;2023-06-22T05:46:29;83992.76;;;14.27;59.78
70437;BME280;57877;39.750;-104.894;2023-06-22T05:48:54;83990.58;;;14.36;59.23
70437;BME280;57877;39.750;-104.894;2023-06-22T05:51:19;83993.18;;;14.66;58.42
70437;BME280;57877;39.750;-104.894;2023-06-22T05:53:45;83989.37;;;15.48;58.46
70437;BME280;57877;39.750;-104.894;2023-06-22T05:56:10;83968.37;;;14.85;57.77
70437;BME280;57877;39.750;-104.894;2023-06-22T05:58:36;83938.97;;;14.01;60.17
70437;BME280;57877;39.750;-104.894;2023-06-22T06:01:02;83929.11;;;13.28;62.20
70437;BME280;57877;39.750;-104.894;2023-06-22T06:03:27;83933.33;;;13.22;62.94
70437;BME280;57877;39.750;-104.894;2023-06-22T06:05:53;83920.45;;;13.61;62.24
70437;BME280;57877;39.750;-104.894;2023-06-22T06:08:19;83913.39;;;14.16;60.89
70437;BME280;57877;39.750;-104.894;2023-06-22T06:10:45;83945.38;;;14.45;60.51
70437;BME280;57877;39.750;-104.894;2023-06-22T06:13:10;83987.20;;;14.27;60.80
70437;BME280;57877;39.750;-104.894;2023-06-22T06:15:36;84010.93;;;14.08;60.88
70437;BME280;57877;39.750;-104.894;2023-06-22T06:18:02;84015.17;;;14.56;59.72
70437;BME280;57877;39.750;-104.894;2023-06-22T06:20:28;84023.62;;;14.27;60.10
70437;BME280;57877;39.750;-104.894;2023-06-22T06:22:54;84026.63;;;14.71;59.94
70437;BME280;57877;39.750;-104.894;2023-06-22T06:25:20;84027.82;;;14.73;59.75
70437;BME280;57877;39.750;-104.894;2023-06-22T06:27:47;84025.20;;;14.32;60.50
70437;BME280;57877;39.750;-104.894;2023-06-22T06:30:13;83999.50;;;14.13;62.04
70437;BME280;57877;39.750;-104.894;2023-06-22T06:32:38;83970.13;;;13.71;62.68
70437;BME280;57877;39.750;-104.894;2023-06-22T06:35:05;83956.63;;;13.56;63.43
70437;BME280;57877;39.750;-104.894;2023-06-22T06:37:30;83964.18;;;13.46;62.81
70437;BME280;57877;39.750;-104.894;2023-06-22T06:39:55;83965.63;;;13.72;63.25
70437;BME280;57877;39.750;-104.894;2023-06-22T06:42:21;83947.12;;;12.99;65.02
70437;BME280;57877;39.750;-104.894;2023-06-22T06:44:48;83929.21;;;13.32;64.69
70437;BME280;57877;39.750;-104.894;2023-06-22T06:47:14;83931.13;;;13.13;64.70
70437;BME280;57877;39.750;-104.894;2023-06-22T06:49:40;83930.56;;;13.18;65.10
70437;BME280;57877;39.750;-104.894;2023-06-22T06:52:06;83931.33;;;13.70;63.40
70437;BME280;57877;39.750;-104.894;2023-06-22T06:54:32;83950.70;;;13.84;62.76
70437;BME280;57877;39.750;-104.894;2023-06-22T06:56:58;83977.41;;;12.73;64.46
70437;BME280;57877;39.750;-104.894;2023-06-22T06:59:24;84005.75;;;13.40;63.41
70437;BME280;57877;39.750;-104.894;2023-06-22T07:01:50;84011.44;;;13.95;62.22
70437;BME280;57877;39.750;-104.894;2023-06-22T07:04:16;84002.04;;;13.12;63.51
70437;BME280;57877;39.750;-104.894;2023-06-22T07:06:42;83983.34;;;13.28;63.40
70437;BME280;57877;39.750;-104.894;2023-06-22T07:09:08;83970.42;;;13.65;61.32
70437;BME280;57877;39.750;-104.894;2023-06-22T07:11:33;83974.15;;;13.81;60.83
70437;BME280;57877;39.750;-104.894;2023-06-22T07:13:58;84004.92;;;13.80;61.75
70437;BME280;57877;39.750;-104.894;2023-06-22T07:16:23;84043.43;;;14.58;60.41
70437;BME280;57877;39.750;-104.894;2023-06-22T07:18:48;84072.76;;;14.67;60.12
70437;BME280;57877;39.750;-104.894;2023-06-22T07:21:13;84093.82;;;14.92;59.23
70437;BME280;57877;39.750;-104.894;2023-06-22T07:23:38;84101.71;;;14.77;59.11
70437;BME280;57877;39.750;-104.894;2023-06-22T07:26:03;84085.63;;;15.05;59.10
70437;BME280;57877;39.750;-104.894;2023-06-22T07:28:28;84060.46;;;15.31;57.95
70437;BME280;57877;39.750;-104.894;2023-06-22T07:30:53;84046.28;;;15.69;57.63
70437;BME280;57877;39.750;-104.894;2023-06-22T07:33:18;84052.13;;;15.51;57.92
70437;BME280;57877;39.750;-104.894;2023-06-22T07:35:44;84047.05;;;15.82;57.15
70437;BME280;57877;39.750;-104.894;2023-06-22T07:38:10;84040.14;;;15.71;57.46
70437;BME280;57877;39.750;-104.894;2023-06-22T07:40:36;84033.13;;;15.31;57.59
70437;BME280;57877;39.750;-104.894;2023-06-22T07:43:01;84038.41;;;15.40;56.88
70437;BME280;57877;39.750;-104.894;2023-06-22T07:45:26;84041.02;;;15.53;57.04
70437;BME280;57877;39.750;-104.894;2023-06-22T07:47:51;84040.89;;;15.80;56.29
70437;BME280;57877;39.750;-104.894;2023-06-22T07:50:16;84042.25;;;15.35;57.35
70437;BME280;57877;39.750;-104.894;2023-06-22T07:52:41;84040.06;;;14.20;59.71
70437;BME280;57877;39.750;-104.894;2023-06-22T07:55:07;84037.45;;;14.72;59.19
70437;BME280;57877;39.750;-104.894;2023-06-22T07:57:31;84036.48;;;15.61;57.37
70437;BME280;57877;39.750;-104.894;2023-06-22T07:59:56;84032.74;;;15.27;57.38
70437;BME280;57877;39.750;-104.894;2023-06-22T08:02:22;84024.45;;;15.86;56.23
70437;BME280;57877;39.750;-104.894;2023-06-22T08:04:47;84021.37;;;15.48;56.73
70437;BME280;57877;39.750;-104.894;2023-06-22T08:07:13;84024.97;;;16.00;55.97
70437;BME280;57877;39.750;-104.894;2023-06-22T08:09:41;84037.33;;;15.80;55.54
70437;BME280;57877;39.750;-104.894;2023-06-22T08:12:06;84058.37;;;16.01;55.26
70437;BME280;57877;39.750;-104.894;2023-06-22T08:14:31;84080.10;;;16.11;55.62
70437;BME280;57877;39.750;-104.894;2023-06-22T08:16:57;84084.11;;;16.09;54.99
70437;BME280;57877;39.750;-104.894;2023-06-22T08:19:22;84079.22;;;16.02;54.75
70437;BME280;57877;39.750;-104.894;2023-06-22T08:21:47;84079.66;;;16.00;54.89
70437;BME280;57877;39.750;-104.894;2023-06-22T08:24:12;84075.52;;;16.33;54.60
70437;BME280;57877;39.750;-104.894;2023-06-22T08:26:38;84067.38;;;16.21;55.02
70437;BME280;57877;39.750;-104.894;2023-06-22T08:29:02;84048.12;;;16.39;54.00
70437;BME280;57877;39.750;-104.894;2023-06-22T08:31:27;84038.63;;;16.23;54.67
70437;BME280;57877;39.750;-104.894;2023-06-22T08:33:52;84039.57;;;16.45;54.68
70437;BME280;57877;39.750;-104.894;2023-06-22T08:36:18;84047.47;;;15.89;56.17
70437;BME280;57877;39.750;-104.894;2023-06-22T08:38:43;84066.03;;;15.96;55.79
70437;BME280;57877;39.750;-104.894;2023-06-22T08:41:08;84088.71;;;16.43;55.21
70437;BME280;57877;39.750;-104.894;2023-06-22T08:43:33;84104.34;;;16.23;55.10
70437;BME280;57877;39.750;-104.894;2023-06-22T08:45:58;84115.62;;;16.64;55.14
70437;BME280;57877;39.750;-104.894;2023-06-22T08:48:24;84119.47;;;15.99;55.04
70437;BME280;57877;39.750;-104.894;2023-06-22T08:50:49;84117.95;;;16.91;54.76
70437;BME280;57877;39.750;-104.894;2023-06-22T08:53:14;84112.08;;;16.39;55.57
70437;BME280;57877;39.750;-104.894;2023-06-22T08:55:40;84118.55;;;16.33;55.71
70437;BME280;57877;39.750;-104.894;2023-06-22T08:58:05;84129.70;;;16.61;55.14
70437;BME280;57877;39.750;-104.894;2023-06-22T09:00:30;84131.07;;;17.03;54.74
70437;BME280;57877;39.750;-104.894;2023-06-22T09:02:56;84130.75;;;16.57;54.58
70437;BME280;57877;39.750;-104.894;2023-06-22T09:05:21;84127.90;;;16.36;55.29
70437;BME280;57877;39.750;-104.894;2023-06-22T09:07:46;84118.90;;;16.46;54.75
70437;BME280;57877;39.750;-104.894;2023-06-22T09:10:11;84113.49;;;16.83;54.61
70437;BME280;57877;39.750;-104.894;2023-06-22T09:12:36;84109.09;;;16.94;54.51
70437;BME280;57877;39.750;-104.894;2023-06-22T09:15:03;84106.71;;;16.55;54.39
70437;BME280;57877;39.750;-104.894;2023-06-22T09:17:28;84095.75;;;16.57;54.30
70437;BME280;57877;39.750;-104.894;2023-06-22T09:19:54;84087.14;;;16.57;54.69
70437;BME280;57877;39.750;-104.894;2023-06-22T09:22:20;84086.37;;;16.60;54.43
70437;BME280;57877;39.750;-104.894;2023-06-22T09:24:45;84092.57;;;16.62;54.48
70437;BME280;57877;39.750;-104.894;2023-06-22T09:27:10;84097.68;;;16.68;54.32
70437;BME280;57877;39.750;-104.894;2023-06-22T09:29:35;84097.40;;;16.72;54.24
70437;BME280;57877;39.750;-104.894;2023-06-22T09:32:00;84087.47;;;16.35;54.60
70437;BME280;57877;39.750;-104.894;2023-06-22T09:34:25;84072.02;;;15.93;55.67
70437;BME280;57877;39.750;-104.894;2023-06-22T09:36:51;84069.23;;;16.03;55.01
70437;BME280;57877;39.750;-104.894;2023-06-22T09:39:17;84081.24;;;16.11;55.58
70437;BME280;57877;39.750;-104.894;2023-06-22T09:41:42;84095.54;;;16.38;54.92
70437;BME280;57877;39.750;-104.894;2023-06-22T09:44:08;84102.42;;;16.02;54.82
70437;BME280;57877;39.750;-104.894;2023-06-22T09:46:33;84106.11;;;16.13;54.21
70437;BME280;57877;39.750;-104.894;2023-06-22T09:48:59;84104.23;;;16.30;54.48
70437;BME280;57877;39.750;-104.894;2023-06-22T09:51:24;84097.23;;;16.39;54.07
70437;BME280;57877;39.750;-104.894;2023-06-22T09:53:49;84089.73;;;16.42;53.98
70437;BME280;57877;39.750;-104.894;2023-06-22T09:56:16;84084.46;;;16.42;53.85
70437;BME280;57877;39.750;-104.894;2023-06-22T09:58:42;84090.89;;;16.11;53.71
70437;BME280;57877;39.750;-104.894;2023-06-22T10:01:08;84097.18;;;16.39;53.55
70437;BME280;57877;39.750;-104.894;2023-06-22T10:03:32;84089.47;;;16.38;53.42
70437;BME280;57877;39.750;-104.894;2023-06-22T10:05:58;84079.45;;;16.21;53.51
70437;BME280;57877;39.750;-104.894;2023-06-22T10:08:22;84082.37;;;16.34;53.00
70437;BME280;57877;39.750;-104.894;2023-06-22T10:10:48;84082.12;;;16.28;53.66
70437;BME280;57877;39.750;-104.894;2023-06-22T10:13:13;84086.89;;;15.72;54.24
70437;BME280;57877;39.750;-104.894;2023-06-22T10:15:38;84092.83;;;15.19;54.71
70437;BME280;57877;39.750;-104.894;2023-06-22T10:18:04;84098.12;;;15.52;54.96
70437;BME280;57877;39.750;-104.894;2023-06-22T10:20:30;84101.59;;;15.79;54.50
70437;BME280;57877;39.750;-104.894;2023-06-22T10:22:55;84095.22;;;15.37;54.48
70437;BME280;57877;39.750;-104.894;2023-06-22T10:25:21;84095.07;;;15.65;54.74
70437;BME280;57877;39.750;-104.894;2023-06-22T10:27:45;84096.95;;;15.35;55.07
70437;BME280;57877;39.750;-104.894;2023-06-22T10:30:11;84101.97;;;15.59;54.48
70437;BME280;57877;39.750;-104.894;2023-06-22T10:32:35;84097.59;;;15.86;54.49
70437;BME280;57877;39.750;-104.894;2023-06-22T10:35:00;84092.98;;;15.73;54.47
70437;BME280;57877;39.750;-104.894;2023-06-22T10:37:25;84080.65;;;14.69;55.76
70437;BME280;57877;39.750;-104.894;2023-06-22T10:39:50;84078.55;;;15.15;56.01
70437;BME280;57877;39.750;-104.894;2023-06-22T10:42:15;84077.64;;;15.22;54.64
70437;BME280;57877;39.750;-104.894;2023-06-22T10:44:40;84071.24;;;15.22;54.73
70437;BME280;57877;39.750;-104.894;2023-06-22T10:47:06;84069.42;;;15.04;54.86
70437;BME280;57877;39.750;-104.894;2023-06-22T10:49:30;84068.94;;;15.06;55.17
70437;BME280;57877;39.750;-104.894;2023-06-22T10:51:55;84069.64;;;14.99;54.43
70437;BME280;57877;39.750;-104.894;2023-06-22T10:54:20;84073.32;;;14.52;55.60
70437;BME280;57877;39.750;-104.894;2023-06-22T10:56:45;84082.19;;;14.44;55.64
70437;BME280;57877;39.750;-104.894;2023-06-22T10:59:10;84092.15;;;14.70;55.30
70437;BME280;57877;39.750;-104.894;2023-06-22T11:01:36;84098.47;;;14.80;55.39
70437;BME280;57877;39.750;-104.894;2023-06-22T11:04:01;84100.02;;;14.54;55.87
70437;BME280;57877;39.750;-104.894;2023-06-22T11:06:27;84100.87;;;14.46;55.72
70437;BME280;57877;39.750;-104.894;2023-06-22T11:08:52;84098.55;;;14.95;54.79
70437;BME280;57877;39.750;-104.894;2023-06-22T11:11:17;84108.37;;;14.76;55.45
70437;BME280;57877;39.750;-104.894;2023-06-22T11:13:42;84114.09;;;14.35;54.97
70437;BME280;57877;39.750;-104.894;2023-06-22T11:16:07;84113.99;;;14.39;55.54
70437;BME280;57877;39.750;-104.894;2023-06-22T11:18:32;84113.86;;;14.30;55.59
70437;BME280;57877;39.750;-104.894;2023-06-22T11:20:58;84111.75;;;13.50;56.91
70437;BME280;57877;39.750;-104.894;2023-06-22T11:23:24;84117.18;;;13.51;57.41
70437;BME280;57877;39.750;-104.894;2023-06-22T11:25:49;84113.62;;;13.88;56.40
70437;BME280;57877;39.750;-104.894;2023-06-22T11:28:14;84115.77;;;13.48;57.08
70437;BME280;57877;39.750;-104.894;2023-06-22T11:30:39;84112.01;;;14.28;54.96
70437;BME280;57877;39.750;-104.894;2023-06-22T11:33:04;84111.22;;;14.03;55.18
70437;BME280;57877;39.750;-104.894;2023-06-22T11:35:29;84103.59;;;13.60;56.67
70437;BME280;57877;39.750;-104.894;2023-06-22T11:37:54;84102.85;;;14.38;54.26
70437;BME280;57877;39.750;-104.894;2023-06-22T11:40:19;84094.96;;;14.44;54.42
70437;BME280;57877;39.750;-104.894;2023-06-22T11:42:44;84092.08;;;14.30;53.73
70437;BME280;57877;39.750;-104.894;2023-06-22T11:45:10;84090.32;;;14.37;54.23
70437;BME280;57877;39.750;-104.894;2023-06-22T11:47:36;84094.09;;;14.46;53.70
70437;BME280;57877;39.750;-104.894;2023-06-22T11:50:01;84091.99;;;14.62;53.20
70437;BME280;57877;39.750;-104.894;2023-06-22T11:52:27;84094.68;;;14.64;53.15
70437;BME280;57877;39.750;-104.894;2023-06-22T11:54:51;84092.04;;;14.94;52.88
70437;BME280;57877;39.750;-104.894;2023-06-22T11:57:17;84088.06;;;15.26;52.85
70437;BME280;57877;39.750;-104.894;2023-06-22T11:59:43;84091.36;;;14.46;52.90
70437;BME280;57877;39.750;-104.894;2023-06-22T12:02:08;84090.90;;;14.23;53.02
70437;BME280;57877;39.750;-104.894;2023-06-22T12:04:35;84088.53;;;14.74;52.43
70437;BME280;57877;39.750;-104.894;2023-06-22T12:07:00;84085.68;;;14.82;52.21
70437;BME280;57877;39.750;-104.894;2023-06-22T12:09:26;84082.36;;;15.23;51.12
70437;BME280;57877;39.750;-104.894;2023-06-22T12:11:52;84083.82;;;14.52;52.08
70437;BME280;57877;39.750;-104.894;2023-06-22T12:14:19;84078.88;;;14.75;52.51
70437;BME280;57877;39.750;-104.894;2023-06-22T12:16:44;84074.17;;;14.62;52.12
70437;BME280;57877;39.750;-104.894;2023-06-22T12:19:11;84073.13;;;14.59;53.08